createdAt,value
2017-06-05T00:03:13.953Z,0
2017-06-05T00:08:10.611Z,0
2017-06-05T00:13:06.254Z,0
2017-06-05T00:18:02.186Z,0
2017-06-05T00:22:58.338Z,0
2017-06-05T00:27:54.152Z,0
2017-06-05T00:32:50.347Z,0
2017-06-05T00:37:46.361Z,0
2017-06-05T00:42:42.496Z,0
2017-06-05T00:47:38.433Z,0
2017-06-05T00:52:35.208Z,0
2017-06-05T00:57:30.678Z,0
2017-06-05T01:02:26.489Z,0
2017-06-05T01:07:23.341Z,0
2017-06-05T01:12:19.985Z,0
2017-06-05T01:17:16.626Z,0
2017-06-05T01:22:12.602Z,0
2017-06-05T01:27:08.329Z,0
2017-06-05T01:32:04.123Z,0
2017-06-05T01:36:59.642Z,0
2017-06-05T01:41:55.838Z,0
2017-06-05T01:46:51.283Z,0
2017-06-05T01:51:47.696Z,0
2017-06-05T01:56:43.680Z,0
2017-06-05T02:01:39.287Z,0
2017-06-05T02:06:35.455Z,0
2017-06-05T02:11:31.303Z,0
2017-06-05T02:16:27.107Z,0
2017-06-05T02:21:24.649Z,0
2017-06-05T02:26:20.105Z,4
2017-06-05T02:31:16.808Z,4
2017-06-05T02:36:12.291Z,4
2017-06-05T02:41:09.419Z,4
2017-06-05T02:46:04.921Z,12
2017-06-05T02:51:00.825Z,20
2017-06-05T02:55:56.533Z,36
2017-06-05T03:00:52.741Z,60
2017-06-05T03:05:49.075Z,92
2017-06-05T03:10:45.076Z,140
2017-06-05T03:15:40.859Z,180
2017-06-05T03:20:37.533Z,240
2017-06-05T03:25:33.340Z,352
2017-06-05T03:30:29.374Z,456
2017-06-05T03:35:25.074Z,492
2017-06-05T03:40:21.653Z,572
2017-06-05T03:45:18.432Z,680
2017-06-05T03:50:15.143Z,856
2017-06-05T03:55:10.553Z,1092
2017-06-05T04:00:06.809Z,1332
2017-06-05T04:05:03.041Z,1584
2017-06-05T04:10:01.417Z,1820
2017-06-05T04:14:57.565Z,1976
2017-06-05T04:19:53.209Z,2328
2017-06-05T04:24:49.400Z,2672
2017-06-05T04:29:46.328Z,3068
2017-06-05T04:34:41.739Z,3592
2017-06-05T04:39:38.090Z,4480
2017-06-05T04:44:33.860Z,4492
2017-06-05T04:49:30.291Z,4600
2017-06-05T04:54:26.377Z,4652
2017-06-05T04:59:22.459Z,4952
2017-06-05T05:04:20.656Z,5636
2017-06-05T05:09:15.875Z,5544
2017-06-05T05:14:12.335Z,5560
2017-06-05T05:19:08.474Z,5568
2017-06-05T05:24:04.174Z,5100
2017-06-05T05:29:00.136Z,5224
2017-06-05T05:33:56.481Z,5380
2017-06-05T05:38:52.555Z,5412
2017-06-05T05:43:49.253Z,5760
2017-06-05T05:48:45.166Z,6312
2017-06-05T05:53:41.199Z,6300
2017-06-05T05:58:38.098Z,6296
2017-06-05T06:03:33.844Z,6448
2017-06-05T06:08:30.735Z,6928
2017-06-05T06:13:26.287Z,6804
2017-06-05T06:18:22.193Z,6824
2017-06-05T06:23:18.526Z,6956
2017-06-05T06:28:15.456Z,7012
2017-06-05T06:33:11.417Z,7032
2017-06-05T06:38:09.404Z,6816
2017-06-05T06:43:04.743Z,7068
2017-06-05T06:48:00.636Z,7176
2017-06-05T06:52:56.339Z,7372
2017-06-05T06:57:52.263Z,7756
2017-06-05T07:02:48.355Z,7488
2017-06-05T07:07:44.373Z,7784
2017-06-05T07:12:40.398Z,8064
2017-06-05T07:17:36.896Z,8256
2017-06-05T07:22:34.533Z,8448
2017-06-05T07:27:31.676Z,9416
2017-06-05T07:32:27.489Z,10156
2017-06-05T07:37:23.494Z,9552
2017-06-05T07:42:21.068Z,9524
2017-06-05T07:47:16.885Z,16384
2017-06-05T07:52:15.248Z,32864
2017-06-05T07:57:13.873Z,34944
2017-06-05T08:02:11.553Z,30880
2017-06-05T08:07:08.507Z,30784
2017-06-05T08:12:05.372Z,38496
2017-06-05T08:17:02.713Z,35424
2017-06-05T08:22:00.490Z,41696
2017-06-05T08:26:57.149Z,42016
2017-06-05T08:31:53.782Z,70400
2017-06-05T08:36:51.038Z,52032
2017-06-05T08:41:49.034Z,58336
2017-06-05T08:46:44.921Z,49888
2017-06-05T08:51:41.435Z,59136
2017-06-05T08:56:38.695Z,64672
2017-06-05T09:01:35.704Z,35456
2017-06-05T09:06:30.677Z,30464
2017-06-05T09:11:25.631Z,26880
2017-06-05T09:16:20.717Z,46112
2017-06-05T09:21:18.345Z,63648
2017-06-05T09:26:15.404Z,61056
2017-06-05T09:31:11.640Z,80320
2017-06-05T09:36:09.483Z,71264
2017-06-05T09:41:05.957Z,96672
2017-06-05T09:46:03.064Z,107456
2017-06-05T09:51:00.098Z,95136
2017-06-05T09:55:56.434Z,80576
2017-06-05T10:00:53.743Z,89728
2017-06-05T10:05:51.602Z,91584
2017-06-05T10:10:47.392Z,94144
2017-06-05T10:15:43.966Z,74368
2017-06-05T10:20:41.205Z,91776
2017-06-05T10:25:37.161Z,102240
2017-06-05T10:30:33.454Z,55200
2017-06-05T10:35:29.827Z,64384
2017-06-05T10:40:27.126Z,80320
2017-06-05T10:45:24.040Z,55968
2017-06-05T10:50:21.074Z,67232
2017-06-05T10:55:15.425Z,65984
2017-06-05T11:00:13.753Z,75424
2017-06-05T11:05:11.819Z,71264
2017-06-05T11:10:08.584Z,82496
2017-06-05T11:15:05.945Z,79072
2017-06-05T11:20:04.127Z,63712
2017-06-05T11:25:00.813Z,94944
2017-06-05T11:29:57.893Z,107232
2017-06-05T11:34:55.390Z,82656
2017-06-05T11:39:51.280Z,13660
2017-06-05T11:44:46.854Z,109632
2017-06-05T11:49:45.098Z,97344
2017-06-05T11:54:41.424Z,79328
2017-06-05T11:59:36.293Z,92736
2017-06-05T12:04:32.826Z,96544
2017-06-05T12:09:29.635Z,48864
2017-06-05T12:14:26.298Z,81184
2017-06-05T12:19:23.120Z,68896
2017-06-05T12:24:15.063Z,80160
2017-06-05T12:29:12.748Z,11988
2017-06-05T12:34:03.406Z,6912
2017-06-05T12:39:00.741Z,32096
2017-06-05T12:43:57.403Z,12792
2017-06-05T12:48:52.262Z,8468
2017-06-05T12:58:49.350Z,8984
2017-06-05T13:03:46.324Z,9680
2017-06-05T13:08:43.925Z,10428
2017-06-05T13:13:39.765Z,125280
2017-06-05T13:18:38.656Z,14624
2017-06-05T13:23:33.905Z,81664
2017-06-05T13:28:30.894Z,26976
2017-06-05T13:33:27.788Z,49632
2017-06-05T13:38:24.132Z,11056
2017-06-05T13:43:19.333Z,8680
2017-06-05T13:48:15.894Z,16832
2017-06-05T13:53:11.612Z,24608
2017-06-05T13:58:06.962Z,7448
2017-06-05T14:03:03.316Z,9572
2017-06-05T14:07:58.685Z,10020
2017-06-05T14:12:55.994Z,10268
2017-06-05T14:17:51.813Z,10452
2017-06-05T14:22:47.870Z,9464
2017-06-05T14:27:43.757Z,9152
2017-06-05T14:32:40.646Z,8312
2017-06-05T14:37:36.070Z,6964
2017-06-05T14:42:33.007Z,8772
2017-06-05T14:47:28.865Z,8696
2017-06-05T14:52:24.870Z,4720
2017-06-05T14:57:20.504Z,4064
2017-06-05T15:02:16.639Z,7300
2017-06-05T15:07:13.439Z,7284
2017-06-05T15:12:09.214Z,5936
2017-06-05T15:17:06.163Z,4964
2017-06-05T15:22:03.071Z,4608
2017-06-05T15:26:58.470Z,5076
2017-06-05T15:31:54.517Z,4804
2017-06-05T15:36:50.440Z,4244
2017-06-05T15:41:46.233Z,3996
2017-06-05T15:46:42.136Z,4312
2017-06-05T15:51:38.093Z,5156
2017-06-05T15:56:36.426Z,4844
2017-06-05T16:01:32.228Z,5560
2017-06-05T16:06:28.563Z,6668
2017-06-05T16:11:24.981Z,6460
2017-06-05T16:16:21.872Z,5560
2017-06-05T16:21:17.416Z,5748
2017-06-05T16:26:13.599Z,5984
2017-06-05T16:31:09.547Z,4472
2017-06-05T16:36:05.856Z,2916
2017-06-05T16:41:01.632Z,2628
2017-06-05T16:45:58.428Z,2216
2017-06-05T16:50:54.852Z,2140
2017-06-05T16:55:50.626Z,2076
2017-06-05T17:00:46.668Z,2096
2017-06-05T17:05:42.461Z,2100
2017-06-05T17:10:39.236Z,2016
2017-06-05T17:15:35.790Z,1944
2017-06-05T17:20:31.401Z,2012
2017-06-05T17:25:27.477Z,1908
2017-06-05T17:30:23.895Z,1800
2017-06-05T17:35:19.958Z,1716
2017-06-05T17:40:15.791Z,1536
2017-06-05T17:45:11.566Z,1612
2017-06-05T17:50:08.489Z,1576
2017-06-05T17:55:04.218Z,1464
2017-06-05T18:00:00.230Z,1384
2017-06-05T18:04:56.961Z,1316
2017-06-05T18:09:52.676Z,1492
2017-06-05T18:14:48.921Z,1368
2017-06-05T18:19:45.031Z,1408
2017-06-05T18:24:41.083Z,1320
2017-06-05T18:29:37.961Z,1208
2017-06-05T18:34:33.614Z,1136
2017-06-05T18:39:30.070Z,1084
2017-06-05T18:44:25.959Z,1040
2017-06-05T18:49:21.936Z,904
2017-06-05T18:54:18.020Z,788
2017-06-05T18:59:13.671Z,696
2017-06-05T19:04:10.614Z,612
2017-06-05T19:09:06.332Z,512
2017-06-05T19:14:03.086Z,432
2017-06-05T19:19:00.785Z,356
2017-06-05T19:23:56.014Z,280
2017-06-05T19:28:51.828Z,212
2017-06-05T19:33:49.506Z,164
2017-06-05T19:38:45.069Z,120
2017-06-05T19:43:41.041Z,84
2017-06-05T19:48:37.179Z,60
2017-06-05T19:53:32.769Z,40
2017-06-05T19:58:30.037Z,24
2017-06-05T20:03:26.690Z,16
2017-06-05T20:08:24.276Z,8
2017-06-05T20:13:20.358Z,8
2017-06-05T20:18:17.028Z,4
2017-06-05T20:23:13.047Z,0
2017-06-05T20:28:08.824Z,0
2017-06-05T20:33:04.536Z,0
2017-06-05T20:38:02.544Z,0
2017-06-05T20:42:58.791Z,0
2017-06-05T20:47:54.480Z,0
2017-06-05T20:52:50.456Z,0
2017-06-05T20:57:46.771Z,0
2017-06-05T21:02:42.147Z,0
2017-06-05T21:07:39.387Z,0
2017-06-05T21:12:34.968Z,0
2017-06-05T21:17:30.788Z,0
2017-06-05T21:22:27.216Z,0
2017-06-05T21:27:23.021Z,0
2017-06-05T21:32:20.859Z,0
2017-06-05T21:37:16.297Z,0
2017-06-05T21:42:12.076Z,0
2017-06-05T21:47:07.840Z,0
2017-06-05T21:52:03.983Z,0
2017-06-05T21:57:00.078Z,0
2017-06-05T22:01:56.032Z,0
2017-06-05T22:06:51.923Z,0
2017-06-05T22:11:47.805Z,0
2017-06-05T22:16:43.514Z,0
2017-06-05T22:21:39.680Z,0
2017-06-05T22:26:36.637Z,0
2017-06-05T22:31:32.308Z,0
2017-06-05T22:36:28.250Z,0
2017-06-05T22:41:24.171Z,0
2017-06-05T22:46:19.975Z,0
2017-06-05T22:51:15.878Z,0
2017-06-05T22:56:11.952Z,0
2017-06-05T23:01:07.823Z,0
2017-06-05T23:06:03.411Z,0
2017-06-05T23:10:59.160Z,0
2017-06-05T23:15:55.494Z,0
2017-06-05T23:20:51.455Z,0
2017-06-05T23:25:47.385Z,0
2017-06-05T23:30:43.222Z,0
2017-06-05T23:35:39.249Z,0
2017-06-05T23:40:35.270Z,0
2017-06-05T23:45:32.126Z,0
2017-06-05T23:50:27.675Z,0
2017-06-05T23:55:23.509Z,0
